sensor_id;sensor_type;location;lat;lon;timestamp;pressure;altitude;pressure_sealevel;temperature;humidity
63321;BME280;49449;48.800;9.534;2023-08-24T00:00:31;98763.41;;;22.02;38.22
63321;BME280;49449;48.800;9.534;2023-08-24T00:03:01;98757.25;;;22.02;38.44
63321;BME280;49449;48.800;9.534;2023-08-24T00:05:33;98752.44;;;21.99;38.62
63321;BME280;49449;48.800;9.534;2023-08-24T00:08:01;98756.22;;;21.98;38.62
63321;BME280;49449;48.800;9.534;2023-08-24T00:10:28;98751.16;;;21.96;38.77
63321;BME280;49449;48.800;9.534;2023-08-24T00:12:56;98746.88;;;21.95;38.91
63321;BME280;49449;48.800;9.534;2023-08-24T00:15:24;98755.03;;;21.90;39.00
63321;BME280;49449;48.800;9.534;2023-08-24T00:17:52;98749.94;;;21.88;38.98
63321;BME280;49449;48.800;9.534;2023-08-24T00:20:21;98750.75;;;21.89;39.11
63321;BME280;49449;48.800;9.534;2023-08-24T00:22:49;98751.06;;;21.87;39.37
63321;BME280;49449;48.800;9.534;2023-08-24T00:25:17;98748.38;;;21.87;39.35
63321;BME280;49449;48.800;9.534;2023-08-24T00:27:45;98758.13;;;21.83;39.23
63321;BME280;49449;48.800;9.534;2023-08-24T00:30:13;98749.25;;;21.83;39.36
63321;BME280;49449;48.800;9.534;2023-08-24T00:32:41;98746.94;;;21.76;39.42
63321;BME280;49449;48.800;9.534;2023-08-24T00:35:09;98738.09;;;21.76;39.44
63321;BME280;49449;48.800;9.534;2023-08-24T00:37:39;98738.59;;;21.78;39.31
63321;BME280;49449;48.800;9.534;2023-08-24T00:40:07;98725.16;;;21.78;39.04
63321;BME280;49449;48.800;9.534;2023-08-24T00:42:40;98721.28;;;21.70;39.09
63321;BME280;49449;48.800;9.534;2023-08-24T00:45:09;98719.56;;;21.60;39.18
63321;BME280;49449;48.800;9.534;2023-08-24T00:47:40;98721.59;;;21.49;39.42
63321;BME280;49449;48.800;9.534;2023-08-24T00:50:09;98711.84;;;21.53;39.17
63321;BME280;49449;48.800;9.534;2023-08-24T00:52:41;98724.00;;;21.51;39.02
63321;BME280;49449;48.800;9.534;2023-08-24T00:55:09;98714.94;;;21.47;39.18
63321;BME280;49449;48.800;9.534;2023-08-24T00:57:37;98714.13;;;21.46;39.42
63321;BME280;49449;48.800;9.534;2023-08-24T01:00:08;98708.53;;;21.43;39.47
63321;BME280;49449;48.800;9.534;2023-08-24T01:02:37;98710.63;;;21.46;39.51
63321;BME280;49449;48.800;9.534;2023-08-24T01:05:05;98713.81;;;21.48;39.55
63321;BME280;49449;48.800;9.534;2023-08-24T01:07:35;98717.81;;;21.50;39.61
63321;BME280;49449;48.800;9.534;2023-08-24T01:10:08;98705.47;;;21.49;39.82
63321;BME280;49449;48.800;9.534;2023-08-24T01:12:48;98704.97;;;21.47;40.03
63321;BME280;49449;48.800;9.534;2023-08-24T01:15:23;98702.28;;;21.47;39.87
63321;BME280;49449;48.800;9.534;2023-08-24T01:17:55;98711.13;;;21.48;39.86
63321;BME280;49449;48.800;9.534;2023-08-24T01:20:27;98706.06;;;21.46;40.05
63321;BME280;49449;48.800;9.534;2023-08-24T01:23:00;98697.78;;;21.43;39.85
63321;BME280;49449;48.800;9.534;2023-08-24T01:25:38;98697.59;;;21.39;39.90
63321;BME280;49449;48.800;9.534;2023-08-24T01:28:08;98683.75;;;21.32;39.57
63321;BME280;49449;48.800;9.534;2023-08-24T01:30:36;98680.25;;;21.31;39.65
63321;BME280;49449;48.800;9.534;2023-08-24T01:33:05;98692.09;;;21.30;39.81
63321;BME280;49449;48.800;9.534;2023-08-24T01:35:38;98688.63;;;21.30;39.45
63321;BME280;49449;48.800;9.534;2023-08-24T01:38:07;98694.00;;;21.30;39.61
63321;BME280;49449;48.800;9.534;2023-08-24T01:40:45;98692.38;;;21.29;39.82
63321;BME280;49449;48.800;9.534;2023-08-24T01:43:18;98686.81;;;21.25;40.00
63321;BME280;49449;48.800;9.534;2023-08-24T01:45:51;98686.88;;;21.20;40.04
63321;BME280;49449;48.800;9.534;2023-08-24T01:48:21;98682.41;;;21.15;40.01
63321;BME280;49449;48.800;9.534;2023-08-24T01:50:50;98686.78;;;21.11;39.99
63321;BME280;49449;48.800;9.534;2023-08-24T01:53:18;98682.66;;;21.00;40.17
63321;BME280;49449;48.800;9.534;2023-08-24T01:55:47;98683.03;;;20.93;40.17
63321;BME280;49449;48.800;9.534;2023-08-24T01:58:15;98681.38;;;20.97;40.12
63321;BME280;49449;48.800;9.534;2023-08-24T02:00:44;98675.19;;;20.97;40.09
63321;BME280;49449;48.800;9.534;2023-08-24T02:03:12;98680.56;;;20.97;40.32
63321;BME280;49449;48.800;9.534;2023-08-24T02:05:40;98680.75;;;21.01;40.03
63321;BME280;49449;48.800;9.534;2023-08-24T02:08:07;98688.53;;;21.02;40.00
63321;BME280;49449;48.800;9.534;2023-08-24T02:10:35;98679.97;;;21.00;40.10
63321;BME280;49449;48.800;9.534;2023-08-24T02:13:03;98689.94;;;20.99;40.21
63321;BME280;49449;48.800;9.534;2023-08-24T02:15:31;98684.69;;;20.89;40.51
63321;BME280;49449;48.800;9.534;2023-08-24T02:18:00;98681.78;;;20.86;40.01
63321;BME280;49449;48.800;9.534;2023-08-24T02:20:28;98682.16;;;20.79;40.33
63321;BME280;49449;48.800;9.534;2023-08-24T02:22:55;98678.25;;;20.71;40.51
63321;BME280;49449;48.800;9.534;2023-08-24T02:25:24;98686.59;;;20.70;40.70
63321;BME280;49449;48.800;9.534;2023-08-24T02:27:52;98690.00;;;20.75;40.46
63321;BME280;49449;48.800;9.534;2023-08-24T02:30:20;98682.94;;;20.79;40.29
63321;BME280;49449;48.800;9.534;2023-08-24T02:32:48;98693.69;;;20.79;40.31
63321;BME280;49449;48.800;9.534;2023-08-24T02:35:17;98693.47;;;20.76;40.71
63321;BME280;49449;48.800;9.534;2023-08-24T02:37:45;98695.66;;;20.74;40.77
63321;BME280;49449;48.800;9.534;2023-08-24T02:40:13;98688.69;;;20.73;40.56
63321;BME280;49449;48.800;9.534;2023-08-24T02:42:42;98694.06;;;20.73;40.66
63321;BME280;49449;48.800;9.534;2023-08-24T02:45:10;98685.19;;;20.72;40.66
63321;BME280;49449;48.800;9.534;2023-08-24T02:47:37;98677.47;;;20.71;40.57
63321;BME280;49449;48.800;9.534;2023-08-24T02:50:06;98666.94;;;20.74;40.75
63321;BME280;49449;48.800;9.534;2023-08-24T02:52:35;98678.25;;;20.71;40.96
63321;BME280;49449;48.800;9.534;2023-08-24T02:55:05;98677.81;;;20.64;41.12
63321;BME280;49449;48.800;9.534;2023-08-24T02:57:34;98672.31;;;20.55;41.34
63321;BME280;49449;48.800;9.534;2023-08-24T03:00:05;98671.81;;;20.53;41.08
63321;BME280;49449;48.800;9.534;2023-08-24T03:02:34;98672.59;;;20.54;41.03
63321;BME280;49449;48.800;9.534;2023-08-24T03:05:02;98664.53;;;20.54;41.60
63321;BME280;49449;48.800;9.534;2023-08-24T03:07:30;98669.63;;;20.55;41.05
63321;BME280;49449;48.800;9.534;2023-08-24T03:09:59;98668.22;;;20.58;41.10
63321;BME280;49449;48.800;9.534;2023-08-24T03:12:27;98667.94;;;20.59;41.23
63321;BME280;49449;48.800;9.534;2023-08-24T03:14:55;98660.91;;;20.64;41.40
63321;BME280;49449;48.800;9.534;2023-08-24T03:17:23;98674.31;;;20.64;41.17
63321;BME280;49449;48.800;9.534;2023-08-24T03:19:51;98670.84;;;20.63;41.09
63321;BME280;49449;48.800;9.534;2023-08-24T03:22:18;98672.53;;;20.59;41.18
63321;BME280;49449;48.800;9.534;2023-08-24T03:24:46;98664.19;;;20.60;41.12
63321;BME280;49449;48.800;9.534;2023-08-24T03:27:15;98668.44;;;20.61;41.04
63321;BME280;49449;48.800;9.534;2023-08-24T03:29:43;98666.06;;;20.60;41.23
63321;BME280;49449;48.800;9.534;2023-08-24T03:32:11;98664.19;;;20.60;40.99
63321;BME280;49449;48.800;9.534;2023-08-24T03:34:39;98662.06;;;20.57;40.95
63321;BME280;49449;48.800;9.534;2023-08-24T03:37:07;98664.03;;;20.52;41.29
63321;BME280;49449;48.800;9.534;2023-08-24T03:39:36;98660.25;;;20.53;41.28
63321;BME280;49449;48.800;9.534;2023-08-24T03:42:05;98656.28;;;20.50;41.34
63321;BME280;49449;48.800;9.534;2023-08-24T03:44:35;98654.09;;;20.52;41.27
63321;BME280;49449;48.800;9.534;2023-08-24T03:47:03;98667.50;;;20.52;41.10
63321;BME280;49449;48.800;9.534;2023-08-24T03:49:31;98661.66;;;20.50;41.47
63321;BME280;49449;48.800;9.534;2023-08-24T03:51:59;98653.66;;;20.45;41.20
63321;BME280;49449;48.800;9.534;2023-08-24T03:54:26;98643.44;;;20.47;41.23
63321;BME280;49449;48.800;9.534;2023-08-24T03:56:54;98650.69;;;20.47;41.25
63321;BME280;49449;48.800;9.534;2023-08-24T03:59:22;98633.59;;;20.42;41.51
63321;BME280;49449;48.800;9.534;2023-08-24T04:01:51;98637.63;;;20.40;41.24
63321;BME280;49449;48.800;9.534;2023-08-24T04:04:19;98622.63;;;20.39;41.20
63321;BME280;49449;48.800;9.534;2023-08-24T04:06:47;98625.53;;;20.42;41.60
63321;BME280;49449;48.800;9.534;2023-08-24T04:09:15;98615.09;;;20.41;41.52
63321;BME280;49449;48.800;9.534;2023-08-24T04:11:44;98611.88;;;20.39;41.45
63321;BME280;49449;48.800;9.534;2023-08-24T04:14:12;98605.81;;;20.33;41.58
63321;BME280;49449;48.800;9.534;2023-08-24T04:16:40;98608.69;;;20.37;41.46
63321;BME280;49449;48.800;9.534;2023-08-24T04:19:09;98610.03;;;20.39;41.24
63321;BME280;49449;48.800;9.534;2023-08-24T04:21:37;98606.84;;;20.37;41.22
63321;BME280;49449;48.800;9.534;2023-08-24T04:24:05;98612.19;;;20.37;41.14
63321;BME280;49449;48.800;9.534;2023-08-24T04:26:34;98611.59;;;20.40;41.11
63321;BME280;49449;48.800;9.534;2023-08-24T04:29:02;98607.56;;;20.43;41.49
63321;BME280;49449;48.800;9.534;2023-08-24T04:31:30;98605.16;;;20.41;41.23
63321;BME280;49449;48.800;9.534;2023-08-24T04:33:58;98605.16;;;20.41;41.21
63321;BME280;49449;48.800;9.534;2023-08-24T04:36:27;98608.91;;;20.40;41.25
63321;BME280;49449;48.800;9.534;2023-08-24T04:38:54;98607.34;;;20.39;41.05
63321;BME280;49449;48.800;9.534;2023-08-24T04:41:22;98600.28;;;20.43;41.04
63321;BME280;49449;48.800;9.534;2023-08-24T04:43:50;98602.41;;;20.47;41.04
63321;BME280;49449;48.800;9.534;2023-08-24T04:46:18;98602.41;;;20.47;41.38
63321;BME280;49449;48.800;9.534;2023-08-24T04:48:46;98599.44;;;20.48;40.88
63321;BME280;49449;48.800;9.534;2023-08-24T04:51:13;98596.97;;;20.52;41.25
63321;BME280;49449;48.800;9.534;2023-08-24T04:53:43;98600.13;;;20.54;41.00
63321;BME280;49449;48.800;9.534;2023-08-24T04:56:10;98599.63;;;20.52;41.06
63321;BME280;49449;48.800;9.534;2023-08-24T04:58:38;98598.25;;;20.54;41.12
63321;BME280;49449;48.800;9.534;2023-08-24T05:01:06;98600.34;;;20.57;40.96
63321;BME280;49449;48.800;9.534;2023-08-24T05:03:34;98586.72;;;20.54;40.88
63321;BME280;49449;48.800;9.534;2023-08-24T05:06:02;98594.97;;;20.57;41.11
63321;BME280;49449;48.800;9.534;2023-08-24T05:08:29;98584.38;;;20.66;40.86
63321;BME280;49449;48.800;9.534;2023-08-24T05:10:58;98581.91;;;20.70;40.71
63321;BME280;49449;48.800;9.534;2023-08-24T05:13:26;98579.13;;;20.75;40.64
63321;BME280;49449;48.800;9.534;2023-08-24T05:15:54;98584.00;;;20.73;40.83
63321;BME280;49449;48.800;9.534;2023-08-24T05:18:23;98572.66;;;20.76;41.02
63321;BME280;49449;48.800;9.534;2023-08-24T05:20:50;98576.66;;;20.78;40.89
63321;BME280;49449;48.800;9.534;2023-08-24T05:23:18;98574.19;;;20.82;40.84
63321;BME280;49449;48.800;9.534;2023-08-24T05:25:46;98574.09;;;20.87;40.46
63321;BME280;49449;48.800;9.534;2023-08-24T05:28:15;98572.34;;;20.96;40.67
63321;BME280;49449;48.800;9.534;2023-08-24T05:30:43;98577.44;;;21.12;40.31
63321;BME280;49449;48.800;9.534;2023-08-24T05:33:11;98574.59;;;21.22;40.01
63321;BME280;49449;48.800;9.534;2023-08-24T05:35:39;98564.72;;;21.17;40.42
63321;BME280;49449;48.800;9.534;2023-08-24T05:38:07;98558.66;;;21.12;40.11
63321;BME280;49449;48.800;9.534;2023-08-24T05:40:35;98548.91;;;21.16;40.10
63321;BME280;49449;48.800;9.534;2023-08-24T05:43:03;98552.19;;;21.27;40.21
63321;BME280;49449;48.800;9.534;2023-08-24T05:45:33;98556.97;;;21.30;40.08
63321;BME280;49449;48.800;9.534;2023-08-24T05:48:01;98552.69;;;21.29;40.15
63321;BME280;49449;48.800;9.534;2023-08-24T05:50:29;98552.56;;;21.34;39.90
63321;BME280;49449;48.800;9.534;2023-08-24T05:52:56;98547.31;;;21.43;40.14
63321;BME280;49449;48.800;9.534;2023-08-24T05:55:24;98535.69;;;21.61;39.63
63321;BME280;49449;48.800;9.534;2023-08-24T05:57:52;98532.97;;;21.75;39.27
63321;BME280;49449;48.800;9.534;2023-08-24T06:00:20;98522.59;;;21.82;39.14
63321;BME280;49449;48.800;9.534;2023-08-24T06:02:50;98522.78;;;21.86;39.27
63321;BME280;49449;48.800;9.534;2023-08-24T06:05:18;98529.94;;;21.90;39.18
63321;BME280;49449;48.800;9.534;2023-08-24T06:07:46;98526.34;;;21.95;39.20
63321;BME280;49449;48.800;9.534;2023-08-24T06:10:14;98531.13;;;21.98;39.14
63321;BME280;49449;48.800;9.534;2023-08-24T06:12:41;98527.00;;;22.01;39.10
63321;BME280;49449;48.800;9.534;2023-08-24T06:15:09;98536.38;;;22.03;39.05
63321;BME280;49449;48.800;9.534;2023-08-24T06:17:39;98534.47;;;22.04;39.19
63321;BME280;49449;48.800;9.534;2023-08-24T06:20:10;98530.38;;;22.06;39.09
63321;BME280;49449;48.800;9.534;2023-08-24T06:22:39;98536.28;;;22.08;38.83
63321;BME280;49449;48.800;9.534;2023-08-24T06:25:09;98531.88;;;22.12;38.88
63321;BME280;49449;48.800;9.534;2023-08-24T06:27:37;98519.91;;;22.19;38.70
63321;BME280;49449;48.800;9.534;2023-08-24T06:30:06;98522.47;;;22.24;38.54
63321;BME280;49449;48.800;9.534;2023-08-24T06:32:34;98526.16;;;22.28;38.45
63321;BME280;49449;48.800;9.534;2023-08-24T06:35:03;98534.16;;;22.42;38.46
63321;BME280;49449;48.800;9.534;2023-08-24T06:37:33;98532.06;;;22.61;38.12
63321;BME280;49449;48.800;9.534;2023-08-24T06:40:01;98538.91;;;22.67;38.15
63321;BME280;49449;48.800;9.534;2023-08-24T06:42:31;98537.66;;;22.74;37.83
63321;BME280;49449;48.800;9.534;2023-08-24T06:44:59;98528.41;;;22.80;37.72
63321;BME280;49449;48.800;9.534;2023-08-24T06:47:26;98535.22;;;22.86;37.72
63321;BME280;49449;48.800;9.534;2023-08-24T06:49:54;98539.03;;;22.85;37.33
63321;BME280;49449;48.800;9.534;2023-08-24T06:52:22;98539.50;;;22.87;37.28
63321;BME280;49449;48.800;9.534;2023-08-24T06:54:51;98551.38;;;22.86;37.30
63321;BME280;49449;48.800;9.534;2023-08-24T06:57:22;98552.16;;;22.78;37.19
63321;BME280;49449;48.800;9.534;2023-08-24T06:59:50;98552.94;;;22.78;37.56
63321;BME280;49449;48.800;9.534;2023-08-24T07:02:18;98567.28;;;22.74;37.47
63321;BME280;49449;48.800;9.534;2023-08-24T07:04:46;98579.38;;;22.76;37.55
63321;BME280;49449;48.800;9.534;2023-08-24T07:07:14;98585.03;;;22.75;38.43
63321;BME280;49449;48.800;9.534;2023-08-24T07:09:42;98588.03;;;22.73;38.28
63321;BME280;49449;48.800;9.534;2023-08-24T07:12:11;98608.22;;;22.76;38.28
63321;BME280;49449;48.800;9.534;2023-08-24T07:14:38;98611.69;;;22.76;38.20
63321;BME280;49449;48.800;9.534;2023-08-24T07:17:06;98615.75;;;22.74;37.94
63321;BME280;49449;48.800;9.534;2023-08-24T07:19:34;98618.09;;;22.66;38.00
63321;BME280;49449;48.800;9.534;2023-08-24T07:22:02;98615.50;;;22.61;38.75
63321;BME280;49449;48.800;9.534;2023-08-24T07:24:30;98598.03;;;22.50;39.15
63321;BME280;49449;48.800;9.534;2023-08-24T07:27:04;98581.41;;;21.98;40.32
63321;BME280;49449;48.800;9.534;2023-08-24T07:29:34;98574.97;;;21.85;40.41
63321;BME280;49449;48.800;9.534;2023-08-24T07:32:01;98586.75;;;21.75;40.54
63321;BME280;49449;48.800;9.534;2023-08-24T07:34:30;98589.72;;;21.87;40.82
63321;BME280;49449;48.800;9.534;2023-08-24T07:36:57;98587.31;;;22.00;40.13
63321;BME280;49449;48.800;9.534;2023-08-24T07:39:25;98576.28;;;22.10;39.97
63321;BME280;49449;48.800;9.534;2023-08-24T07:41:53;98569.53;;;22.12;39.83
63321;BME280;49449;48.800;9.534;2023-08-24T07:44:21;98569.75;;;22.02;40.24
63321;BME280;49449;48.800;9.534;2023-08-24T07:46:50;98558.75;;;22.12;40.19
63321;BME280;49449;48.800;9.534;2023-08-24T07:49:18;98566.19;;;22.29;39.77
63321;BME280;49449;48.800;9.534;2023-08-24T07:51:45;98561.38;;;22.40;40.13
63321;BME280;49449;48.800;9.534;2023-08-24T07:54:13;98562.06;;;22.46;39.76
63321;BME280;49449;48.800;9.534;2023-08-24T07:56:42;98559.66;;;22.67;38.91
63321;BME280;49449;48.800;9.534;2023-08-24T07:59:10;98561.06;;;22.87;38.55
63321;BME280;49449;48.800;9.534;2023-08-24T08:01:37;98549.72;;;22.99;38.55
63321;BME280;49449;48.800;9.534;2023-08-24T08:04:06;98549.50;;;23.18;37.81
63321;BME280;49449;48.800;9.534;2023-08-24T08:06:35;98551.56;;;23.30;37.83
63321;BME280;49449;48.800;9.534;2023-08-24T08:09:03;98558.97;;;23.55;38.07
63321;BME280;49449;48.800;9.534;2023-08-24T08:11:30;98556.19;;;23.78;37.47
63321;BME280;49449;48.800;9.534;2023-08-24T08:13:58;98558.13;;;24.04;37.25
63321;BME280;49449;48.800;9.534;2023-08-24T08:16:26;98552.25;;;24.28;36.52
63321;BME280;49449;48.800;9.534;2023-08-24T08:18:54;98552.88;;;24.42;36.80
63321;BME280;49449;48.800;9.534;2023-08-24T08:21:23;98551.41;;;24.62;35.53
63321;BME280;49449;48.800;9.534;2023-08-24T08:23:50;98558.22;;;24.77;35.18
63321;BME280;49449;48.800;9.534;2023-08-24T08:26:18;98561.03;;;24.98;34.76
63321;BME280;49449;48.800;9.534;2023-08-24T08:28:46;98567.66;;;25.18;34.80
63321;BME280;49449;48.800;9.534;2023-08-24T08:31:14;98559.47;;;25.36;34.05
63321;BME280;49449;48.800;9.534;2023-08-24T08:33:41;98565.56;;;25.54;33.61
63321;BME280;49449;48.800;9.534;2023-08-24T08:36:09;98558.63;;;25.74;33.34
63321;BME280;49449;48.800;9.534;2023-08-24T08:38:38;98548.94;;;25.94;32.46
63321;BME280;49449;48.800;9.534;2023-08-24T08:41:06;98558.03;;;26.10;32.91
63321;BME280;49449;48.800;9.534;2023-08-24T08:43:34;98552.38;;;26.24;32.80
63321;BME280;49449;48.800;9.534;2023-08-24T08:46:02;98551.78;;;26.39;32.24
63321;BME280;49449;48.800;9.534;2023-08-24T08:48:30;98541.31;;;26.50;32.23
63321;BME280;49449;48.800;9.534;2023-08-24T08:50:59;98550.66;;;26.53;31.95
63321;BME280;49449;48.800;9.534;2023-08-24T08:53:29;98538.31;;;26.64;31.84
63321;BME280;49449;48.800;9.534;2023-08-24T08:55:58;98533.94;;;26.84;31.82
63321;BME280;49449;48.800;9.534;2023-08-24T08:58:31;98538.38;;;26.89;30.67
63321;BME280;49449;48.800;9.534;2023-08-24T09:00:59;98544.91;;;27.00;31.29
63321;BME280;49449;48.800;9.534;2023-08-24T09:03:31;98545.19;;;27.19;31.10
63321;BME280;49449;48.800;9.534;2023-08-24T09:05:59;98544.75;;;27.30;30.22
63321;BME280;49449;48.800;9.534;2023-08-24T09:08:27;98543.03;;;27.37;30.83
63321;BME280;49449;48.800;9.534;2023-08-24T09:10:55;98540.75;;;27.27;30.80
63321;BME280;49449;48.800;9.534;2023-08-24T09:13:27;98538.41;;;27.38;30.23
63321;BME280;49449;48.800;9.534;2023-08-24T09:16:02;98535.31;;;27.52;30.53
63321;BME280;49449;48.800;9.534;2023-08-24T09:18:36;98532.16;;;27.62;29.88
63321;BME280;49449;48.800;9.534;2023-08-24T09:21:11;98534.75;;;27.71;30.59
63321;BME280;49449;48.800;9.534;2023-08-24T09:23:44;98535.59;;;27.87;30.39
63321;BME280;49449;48.800;9.534;2023-08-24T09:26:12;98523.44;;;27.81;30.27
63321;BME280;49449;48.800;9.534;2023-08-24T09:28:43;98526.34;;;27.88;30.85
63321;BME280;49449;48.800;9.534;2023-08-24T09:31:11;98520.00;;;27.97;30.35
63321;BME280;49449;48.800;9.534;2023-08-24T09:33:42;98508.09;;;28.01;30.67
63321;BME280;49449;48.800;9.534;2023-08-24T09:36:14;98502.84;;;28.08;30.67
63321;BME280;49449;48.800;9.534;2023-08-24T09:38:46;98498.38;;;28.00;30.04
63321;BME280;49449;48.800;9.534;2023-08-24T09:41:15;98481.50;;;27.79;30.33
63321;BME280;49449;48.800;9.534;2023-08-24T09:43:44;98470.94;;;27.89;30.86
63321;BME280;49449;48.800;9.534;2023-08-24T09:46:18;98470.22;;;27.92;30.69
63321;BME280;49449;48.800;9.534;2023-08-24T09:48:53;98458.59;;;27.92;30.75
63321;BME280;49449;48.800;9.534;2023-08-24T09:51:21;98458.69;;;27.96;30.92
63321;BME280;49449;48.800;9.534;2023-08-24T09:53:49;98461.53;;;27.87;30.55
63321;BME280;49449;48.800;9.534;2023-08-24T09:56:17;98456.25;;;28.06;30.92
63321;BME280;49449;48.800;9.534;2023-08-24T09:58:47;98449.75;;;27.95;30.50
63321;BME280;49449;48.800;9.534;2023-08-24T10:01:17;98447.13;;;27.99;30.59
63321;BME280;49449;48.800;9.534;2023-08-24T10:03:51;98436.09;;;27.91;30.83
63321;BME280;49449;48.800;9.534;2023-08-24T10:06:19;98431.59;;;27.83;31.32
63321;BME280;49449;48.800;9.534;2023-08-24T10:08:54;98418.50;;;28.01;31.11
63321;BME280;49449;48.800;9.534;2023-08-24T10:11:28;98410.22;;;28.26;30.58
63321;BME280;49449;48.800;9.534;2023-08-24T10:14:02;98408.31;;;28.26;30.49
63321;BME280;49449;48.800;9.534;2023-08-24T10:16:35;98399.19;;;28.50;30.61
63321;BME280;49449;48.800;9.534;2023-08-24T10:19:04;98392.19;;;28.65;30.83
63321;BME280;49449;48.800;9.534;2023-08-24T10:21:32;98387.28;;;28.71;30.44
63321;BME280;49449;48.800;9.534;2023-08-24T10:24:01;98376.94;;;28.77;30.72
63321;BME280;49449;48.800;9.534;2023-08-24T10:26:30;98374.16;;;28.25;31.17
63321;BME280;49449;48.800;9.534;2023-08-24T10:29:02;98371.25;;;28.50;31.37
63321;BME280;49449;48.800;9.534;2023-08-24T10:31:31;98365.63;;;28.75;31.03
63321;BME280;49449;48.800;9.534;2023-08-24T10:33:59;98357.72;;;28.85;30.53
63321;BME280;49449;48.800;9.534;2023-08-24T10:36:28;98362.66;;;28.48;31.35
63321;BME280;49449;48.800;9.534;2023-08-24T10:38:56;98362.06;;;28.71;30.71
63321;BME280;49449;48.800;9.534;2023-08-24T10:41:26;98359.25;;;28.51;30.87
63321;BME280;49449;48.800;9.534;2023-08-24T10:44:05;98352.69;;;28.36;31.07
63321;BME280;49449;48.800;9.534;2023-08-24T10:46:35;98364.50;;;28.76;31.70
63321;BME280;49449;48.800;9.534;2023-08-24T10:49:04;98350.09;;;28.59;31.03
63321;BME280;49449;48.800;9.534;2023-08-24T10:51:42;98341.47;;;28.89;31.46
63321;BME280;49449;48.800;9.534;2023-08-24T10:54:10;98342.50;;;29.00;31.14
63321;BME280;49449;48.800;9.534;2023-08-24T10:56:39;98350.44;;;29.09;30.62
63321;BME280;49449;48.800;9.534;2023-08-24T10:59:13;98339.50;;;28.54;31.35
63321;BME280;49449;48.800;9.534;2023-08-24T11:01:42;98329.47;;;28.90;31.03
63321;BME280;49449;48.800;9.534;2023-08-24T11:04:11;98314.88;;;29.18;31.16
63321;BME280;49449;48.800;9.534;2023-08-24T11:06:52;98312.31;;;29.25;30.46
63321;BME280;49449;48.800;9.534;2023-08-24T11:09:21;98307.47;;;29.34;30.47
63321;BME280;49449;48.800;9.534;2023-08-24T11:11:56;98305.75;;;29.26;31.08
63321;BME280;49449;48.800;9.534;2023-08-24T11:14:27;98297.25;;;29.28;31.19
63321;BME280;49449;48.800;9.534;2023-08-24T11:16:57;98296.34;;;29.62;30.64
63321;BME280;49449;48.800;9.534;2023-08-24T11:19:26;98295.88;;;29.80;30.11
63321;BME280;49449;48.800;9.534;2023-08-24T11:21:54;98296.38;;;29.66;30.27
63321;BME280;49449;48.800;9.534;2023-08-24T11:24:22;98290.09;;;29.81;30.11
63321;BME280;49449;48.800;9.534;2023-08-24T11:26:50;98288.91;;;29.83;29.81
63321;BME280;49449;48.800;9.534;2023-08-24T11:29:19;98285.59;;;29.93;29.64
63321;BME280;49449;48.800;9.534;2023-08-24T11:31:48;98290.56;;;29.87;30.22
63321;BME280;49449;48.800;9.534;2023-08-24T11:34:17;98278.66;;;29.99;29.72
63321;BME280;49449;48.800;9.534;2023-08-24T11:36:47;98278.72;;;30.03;30.04
63321;BME280;49449;48.800;9.534;2023-08-24T11:39:16;98268.47;;;29.92;29.74
63321;BME280;49449;48.800;9.534;2023-08-24T11:41:56;98252.94;;;29.70;30.32
63321;BME280;49449;48.800;9.534;2023-08-24T11:44:24;98255.09;;;29.60;30.10
63321;BME280;49449;48.800;9.534;2023-08-24T11:46:57;98248.44;;;29.81;30.43
63321;BME280;49449;48.800;9.534;2023-08-24T11:49:25;98249.94;;;30.02;30.58
63321;BME280;49449;48.800;9.534;2023-08-24T11:51:54;98239.88;;;30.06;30.19
63321;BME280;49449;48.800;9.534;2023-08-24T11:54:23;98244.75;;;29.93;30.52
63321;BME280;49449;48.800;9.534;2023-08-24T11:56:50;98234.75;;;30.00;29.72
63321;BME280;49449;48.800;9.534;2023-08-24T11:59:19;98229.44;;;30.11;29.68
63321;BME280;49449;48.800;9.534;2023-08-24T12:01:47;98232.50;;;30.29;29.42
63321;BME280;49449;48.800;9.534;2023-08-24T12:04:16;98229.19;;;30.47;29.78
63321;BME280;49449;48.800;9.534;2023-08-24T12:06:44;98232.94;;;30.35;29.42
63321;BME280;49449;48.800;9.534;2023-08-24T12:09:12;98229.06;;;30.36;29.26
63321;BME280;49449;48.800;9.534;2023-08-24T12:11:41;98233.09;;;29.92;29.91
63321;BME280;49449;48.800;9.534;2023-08-24T12:14:16;98234.03;;;30.04;29.41
63321;BME280;49449;48.800;9.534;2023-08-24T12:16:44;98214.28;;;30.37;29.68
63321;BME280;49449;48.800;9.534;2023-08-24T12:19:12;98213.75;;;30.54;29.74
63321;BME280;49449;48.800;9.534;2023-08-24T12:21:44;98221.13;;;30.54;29.17
63321;BME280;49449;48.800;9.534;2023-08-24T12:24:14;98217.25;;;30.02;29.81
63321;BME280;49449;48.800;9.534;2023-08-24T12:26:42;98206.16;;;30.14;29.27
63321;BME280;49449;48.800;9.534;2023-08-24T12:29:10;98207.75;;;30.42;28.76
63321;BME280;49449;48.800;9.534;2023-08-24T12:31:42;98198.69;;;30.34;29.15
63321;BME280;49449;48.800;9.534;2023-08-24T12:34:09;98203.06;;;30.15;29.42
63321;BME280;49449;48.800;9.534;2023-08-24T12:36:38;98179.00;;;30.48;28.48
63321;BME280;49449;48.800;9.534;2023-08-24T12:39:11;98171.13;;;30.39;28.71
63321;BME280;49449;48.800;9.534;2023-08-24T12:41:40;98166.28;;;30.59;28.96
63321;BME280;49449;48.800;9.534;2023-08-24T12:44:08;98158.25;;;30.66;28.48
63321;BME280;49449;48.800;9.534;2023-08-24T12:46:37;98166.31;;;30.63;28.53
63321;BME280;49449;48.800;9.534;2023-08-24T12:49:05;98146.91;;;30.64;27.59
63321;BME280;49449;48.800;9.534;2023-08-24T12:51:33;98140.34;;;30.69;27.24
63321;BME280;49449;48.800;9.534;2023-08-24T12:54:01;98126.41;;;30.78;26.62
63321;BME280;49449;48.800;9.534;2023-08-24T12:56:30;98129.09;;;30.40;26.63
63321;BME280;49449;48.800;9.534;2023-08-24T12:58:58;98128.00;;;30.48;26.53
63321;BME280;49449;48.800;9.534;2023-08-24T13:01:26;98115.81;;;30.69;26.54
63321;BME280;49449;48.800;9.534;2023-08-24T13:03:53;98124.03;;;30.38;26.72
63321;BME280;49449;48.800;9.534;2023-08-24T13:06:22;98114.19;;;30.64;26.88
63321;BME280;49449;48.800;9.534;2023-08-24T13:08:50;98121.75;;;30.78;26.46